createdAt,value
2023-02-15T00:00:19.709Z,18.00
2023-02-15T00:03:07.937Z,22.70
2023-02-15T00:05:36.392Z,22.70
2023-02-15T00:08:04.953Z,20.30
2023-02-15T00:10:33.158Z,16.80
2023-02-15T00:13:01.648Z,20.00
2023-02-15T00:15:30.854Z,23.40
2023-02-15T00:17:59.031Z,19.50
2023-02-15T00:20:27.315Z,17.90
2023-02-15T00:22:55.904Z,16.50
2023-02-15T00:25:24.306Z,18.80
2023-02-15T00:27:52.569Z,16.70
2023-02-15T00:30:21.129Z,19.40
2023-02-15T00:32:49.863Z,15.80
2023-02-15T00:35:18.441Z,21.90
2023-02-15T00:37:46.614Z,23.20
2023-02-15T00:40:15.206Z,23.70
2023-02-15T00:42:43.691Z,18.00
2023-02-15T00:45:11.874Z,16.00
2023-02-15T00:47:40.360Z,22.10
2023-02-15T00:50:09.279Z,15.40
2023-02-15T00:52:37.540Z,20.10
2023-02-15T00:55:06.182Z,17.30
2023-02-15T00:57:34.441Z,24.30
2023-02-15T01:00:03.638Z,16.40
2023-02-15T01:02:32.200Z,18.70
2023-02-15T01:05:00.587Z,18.10
2023-02-15T01:07:28.970Z,22.60
2023-02-15T01:09:57.458Z,18.40
2023-02-15T01:12:25.944Z,16.30
2023-02-15T01:14:54.435Z,15.20
2023-02-15T01:17:22.612Z,20.50
2023-02-15T01:19:52.438Z,18.90
2023-02-15T01:22:20.921Z,20.10
2023-02-15T01:24:52.989Z,20.60
2023-02-15T01:27:21.170Z,15.60
2023-02-15T01:29:49.804Z,17.80
2023-02-15T01:32:18.142Z,18.20
2023-02-15T01:34:46.525Z,18.80
2023-02-15T01:37:15.322Z,19.20
2023-02-15T01:39:43.802Z,21.30
2023-02-15T01:42:13.324Z,28.80
2023-02-15T01:44:44.263Z,19.00
2023-02-15T01:47:17.513Z,18.70
2023-02-15T01:49:49.005Z,24.30
2023-02-15T01:52:19.904Z,27.00
2023-02-15T01:54:49.375Z,20.40
2023-02-15T01:57:25.212Z,25.30
2023-02-15T01:59:57.993Z,22.50
2023-02-15T02:02:28.435Z,22.90
2023-02-15T02:05:07.612Z,23.80
2023-02-15T02:07:42.801Z,22.90
2023-02-15T02:10:14.658Z,18.20
2023-02-15T02:12:46.217Z,23.20
2023-02-15T02:15:15.906Z,18.90
2023-02-15T02:18:03.247Z,18.10
2023-02-15T02:20:37.666Z,20.20
2023-02-15T02:23:23.960Z,20.20
2023-02-15T02:26:19.530Z,19.00
2023-02-15T02:29:28.850Z,24.60
2023-02-15T02:32:23.467Z,25.60
2023-02-15T02:35:02.190Z,19.80
2023-02-15T02:37:57.084Z,17.20
2023-02-15T02:40:57.592Z,20.50
2023-02-15T02:43:39.688Z,21.70
2023-02-15T02:46:16.543Z,17.30
2023-02-15T02:48:45.160Z,18.60
2023-02-15T02:51:15.280Z,17.30
2023-02-15T02:53:44.178Z,17.30
2023-02-15T02:56:20.849Z,25.30
2023-02-15T02:59:05.711Z,18.60
2023-02-15T03:01:47.772Z,19.00
2023-02-15T03:04:29.914Z,25.20
2023-02-15T03:07:06.170Z,33.00
2023-02-15T03:09:44.791Z,21.50
2023-02-15T03:12:22.907Z,22.30
2023-02-15T03:14:58.752Z,24.60
2023-02-15T03:17:30.206Z,20.30
2023-02-15T03:20:03.373Z,20.80
2023-02-15T03:22:44.381Z,20.70
2023-02-15T03:25:22.786Z,21.60
2023-02-15T03:27:55.979Z,21.70
2023-02-15T03:30:26.741Z,16.80
2023-02-15T03:32:59.096Z,22.10
2023-02-15T03:35:44.781Z,23.00
2023-02-15T03:38:18.992Z,23.20
2023-02-15T03:41:07.956Z,20.00
2023-02-15T03:43:56.796Z,23.20
2023-02-15T03:46:35.076Z,24.40
2023-02-15T03:49:22.631Z,24.60
2023-02-15T03:51:54.901Z,19.10
2023-02-15T03:54:43.675Z,26.60
2023-02-15T03:57:38.747Z,19.70
2023-02-15T04:00:37.626Z,28.50
2023-02-15T04:03:12.011Z,24.60
2023-02-15T04:05:41.528Z,29.80
2023-02-15T04:08:10.799Z,30.00
2023-02-15T04:10:54.535Z,26.20
2023-02-15T04:13:30.574Z,26.00
2023-02-15T04:16:05.768Z,27.90
2023-02-15T04:19:00.082Z,22.20
2023-02-15T04:21:49.952Z,28.00
2023-02-15T04:24:37.145Z,27.70
2023-02-15T04:27:07.043Z,21.60
2023-02-15T04:29:35.146Z,32.30
2023-02-15T04:32:04.031Z,22.20
2023-02-15T04:34:32.224Z,21.10
2023-02-15T04:37:00.420Z,44.40
2023-02-15T04:39:28.688Z,32.90
2023-02-15T04:41:57.174Z,29.20
2023-02-15T04:44:25.964Z,23.60
2023-02-15T04:46:54.142Z,23.20
2023-02-15T04:49:22.632Z,22.50
2023-02-15T04:51:51.432Z,24.90
2023-02-15T04:54:19.817Z,26.50
2023-02-15T04:56:48.198Z,24.70
2023-02-15T04:59:16.680Z,25.80
2023-02-15T05:01:44.864Z,29.60
2023-02-15T05:04:13.584Z,25.80
2023-02-15T05:06:42.141Z,26.30
2023-02-15T05:09:15.102Z,26.70
2023-02-15T05:11:43.726Z,24.80
2023-02-15T05:14:12.010Z,23.30
2023-02-15T05:16:40.828Z,21.60
2023-02-15T05:19:09.280Z,29.60
2023-02-15T05:21:37.884Z,28.80
2023-02-15T05:24:26.723Z,29.40
2023-02-15T05:27:13.732Z,28.80
2023-02-15T05:29:42.528Z,25.20
2023-02-15T05:32:14.699Z,26.00
2023-02-15T05:34:43.402Z,24.60
2023-02-15T05:37:11.784Z,21.90
2023-02-15T05:39:40.161Z,26.80
2023-02-15T05:42:08.757Z,36.00
2023-02-15T05:44:37.051Z,23.90
2023-02-15T05:47:08.345Z,23.40
2023-02-15T05:49:37.297Z,67.30
2023-02-15T05:52:06.080Z,33.10
2023-02-15T05:54:34.462Z,23.40
2023-02-15T05:57:02.646Z,24.90
2023-02-15T05:59:31.132Z,27.20
2023-02-15T06:01:59.568Z,22.90
2023-02-15T06:04:28.183Z,25.20
2023-02-15T06:06:56.587Z,24.40
2023-02-15T06:09:24.973Z,31.60
2023-02-15T06:11:53.268Z,22.80
2023-02-15T06:14:22.263Z,25.90
2023-02-15T06:16:50.434Z,24.90
2023-02-15T06:19:18.615Z,23.60
2023-02-15T06:21:46.800Z,21.80
2023-02-15T06:24:14.978Z,27.70
2023-02-15T06:26:43.367Z,25.50
2023-02-15T06:29:11.537Z,26.00
2023-02-15T06:31:39.917Z,29.00
2023-02-15T06:34:09.233Z,28.50
2023-02-15T06:36:37.975Z,31.20
2023-02-15T06:39:06.211Z,23.60
2023-02-15T06:41:34.692Z,27.10
2023-02-15T06:44:03.275Z,30.50
2023-02-15T06:46:31.688Z,29.20
2023-02-15T06:49:00.047Z,26.70
2023-02-15T06:51:28.642Z,27.10
2023-02-15T06:53:57.121Z,26.20
2023-02-15T06:56:25.308Z,22.80
2023-02-15T06:58:53.990Z,27.10
2023-02-15T07:01:22.433Z,27.10
2023-02-15T07:03:51.167Z,23.10
2023-02-15T07:06:19.346Z,28.10
2023-02-15T07:08:47.733Z,21.00
2023-02-15T07:11:35.154Z,22.60
2023-02-15T07:14:03.531Z,23.70
2023-02-15T07:16:31.779Z,25.30
2023-02-15T07:18:59.996Z,29.70
2023-02-15T07:21:28.315Z,23.80
2023-02-15T07:23:59.741Z,19.40
2023-02-15T07:26:27.908Z,24.00
2023-02-15T07:28:56.188Z,24.70
2023-02-15T07:31:24.706Z,22.70
2023-02-15T07:33:53.061Z,28.60
2023-02-15T07:36:21.753Z,27.20
2023-02-15T07:38:50.144Z,20.70
2023-02-15T07:41:18.440Z,25.30
2023-02-15T07:43:46.744Z,24.00
2023-02-15T07:46:17.573Z,19.90
2023-02-15T07:48:45.929Z,24.70
2023-02-15T07:51:15.859Z,17.10
2023-02-15T07:53:44.446Z,20.60
2023-02-15T07:56:14.081Z,17.80
2023-02-15T07:58:59.424Z,21.30
2023-02-15T08:01:33.566Z,16.00
2023-02-15T08:06:34.396Z,19.40
2023-02-15T08:09:08.055Z,16.70
2023-02-15T08:11:40.892Z,15.60
2023-02-15T08:14:28.618Z,15.70
2023-02-15T08:17:03.467Z,17.30
2023-02-15T08:19:33.596Z,12.90
2023-02-15T08:22:05.171Z,18.90
2023-02-15T08:24:37.667Z,17.30
2023-02-15T08:27:07.763Z,14.40
2023-02-15T08:29:37.746Z,19.40
2023-02-15T08:32:13.090Z,15.10
2023-02-15T08:34:43.062Z,13.50
2023-02-15T08:37:11.506Z,13.50
2023-02-15T08:39:40.208Z,20.20
2023-02-15T08:42:08.578Z,22.10
2023-02-15T08:44:36.989Z,20.10
2023-02-15T08:47:05.344Z,21.10
2023-02-15T08:49:33.849Z,12.90
2023-02-15T08:52:02.321Z,16.60
2023-02-15T08:54:31.117Z,11.70
2023-02-15T08:57:00.697Z,16.50
2023-02-15T08:59:29.427Z,19.70
2023-02-15T09:01:58.182Z,17.50
2023-02-15T09:04:26.599Z,20.40
2023-02-15T09:06:54.780Z,15.30
2023-02-15T09:09:23.368Z,13.60
2023-02-15T09:11:58.821Z,13.60
2023-02-15T09:14:28.579Z,12.80
2023-02-15T09:16:57.657Z,10.30
2023-02-15T09:19:26.333Z,16.20
2023-02-15T09:21:54.980Z,12.80
2023-02-15T09:24:23.293Z,8.70
2023-02-15T09:26:51.790Z,10.50
2023-02-15T09:29:20.962Z,12.30
2023-02-15T09:31:51.601Z,9.50
2023-02-15T09:34:22.352Z,10.00
2023-02-15T09:36:52.040Z,8.70
2023-02-15T09:39:24.904Z,11.10
2023-02-15T09:41:53.949Z,11.20
2023-02-15T09:44:25.208Z,9.90
2023-02-15T09:47:06.489Z,6.70
2023-02-15T09:49:40.697Z,13.00
2023-02-15T09:52:37.735Z,8.60
2023-02-15T09:55:20.968Z,8.50
2023-02-15T09:58:14.112Z,9.60
2023-02-15T10:00:56.532Z,6.50
2023-02-15T10:03:43.379Z,6.90
2023-02-15T10:06:36.475Z,11.20
2023-02-15T10:09:26.037Z,6.80
2023-02-15T10:12:07.111Z,12.70
2023-02-15T10:15:03.739Z,11.10
2023-02-15T10:18:17.055Z,9.90
2023-02-15T10:21:04.325Z,7.20
2023-02-15T10:23:51.171Z,6.40
2023-02-15T10:26:35.621Z,6.90
2023-02-15T10:29:06.566Z,18.70
2023-02-15T10:31:48.069Z,9.60
2023-02-15T10:34:20.758Z,12.20
2023-02-15T10:37:25.949Z,7.60
2023-02-15T10:40:23.303Z,4.70
2023-02-15T10:43:01.926Z,7.80
2023-02-15T10:45:49.252Z,6.90
2023-02-15T10:48:23.552Z,13.50
2023-02-15T10:50:55.197Z,8.50
2023-02-15T10:53:26.462Z,10.50
2023-02-15T10:56:20.475Z,7.10
2023-02-15T10:59:11.836Z,11.20
2023-02-15T11:02:15.634Z,10.20
2023-02-15T11:05:04.151Z,7.70
2023-02-15T11:07:44.538Z,8.70
2023-02-15T11:10:42.084Z,11.80
2023-02-15T11:13:15.991Z,8.40
2023-02-15T11:15:50.339Z,59.90
2023-02-15T11:18:43.233Z,6.00
2023-02-15T11:21:14.097Z,8.90
2023-02-15T11:23:45.904Z,7.80
2023-02-15T11:26:21.609Z,15.50
2023-02-15T11:28:56.346Z,7.40
2023-02-15T11:31:28.045Z,7.40
2023-02-15T11:34:13.283Z,7.00
2023-02-15T11:36:44.517Z,11.20
2023-02-15T11:39:18.527Z,11.00
2023-02-15T11:41:53.362Z,7.20
2023-02-15T11:44:48.354Z,9.80
2023-02-15T11:47:16.577Z,5.80
2023-02-15T11:49:47.052Z,11.10
2023-02-15T11:52:18.823Z,11.40
2023-02-15T11:54:53.116Z,6.10
2023-02-15T11:57:23.084Z,6.90
2023-02-15T12:00:05.143Z,8.60
2023-02-15T12:02:38.466Z,5.90
2023-02-15T12:05:15.135Z,8.90
2023-02-15T12:08:07.000Z,16.00
2023-02-15T12:10:41.384Z,7.30
2023-02-15T12:13:14.045Z,5.60
2023-02-15T12:15:46.669Z,16.90
2023-02-15T12:18:25.669Z,6.40
2023-02-15T12:20:54.178Z,9.60
2023-02-15T12:23:23.209Z,7.90
2023-02-15T12:25:57.039Z,9.70
2023-02-15T12:28:32.606Z,7.20
2023-02-15T12:31:03.954Z,7.30
2023-02-15T12:33:46.651Z,13.90
2023-02-15T12:36:23.690Z,8.50
2023-02-15T12:39:17.410Z,9.70
2023-02-15T12:41:58.179Z,23.50
2023-02-15T12:44:38.238Z,9.30
2023-02-15T12:47:20.439Z,9.00
2023-02-15T12:50:21.355Z,7.80
2023-02-15T12:52:52.811Z,12.30
2023-02-15T12:55:33.167Z,10.90
2023-02-15T12:58:24.688Z,18.50
2023-02-15T13:01:18.903Z,7.50
2023-02-15T13:04:00.966Z,6.00
2023-02-15T13:06:33.327Z,8.30
2023-02-15T13:09:14.505Z,9.60
2023-02-15T13:11:45.747Z,9.50
2023-02-15T13:14:23.683Z,10.10
2023-02-15T13:16:54.635Z,23.40
2023-02-15T13:19:46.119Z,12.60
2023-02-15T13:22:17.976Z,22.80
2023-02-15T13:25:02.741Z,23.80
2023-02-15T13:27:41.045Z,7.90
2023-02-15T13:30:22.479Z,9.40
2023-02-15T13:33:00.944Z,9.00
2023-02-15T13:35:39.457Z,8.40
2023-02-15T13:38:38.846Z,11.40
2023-02-15T13:41:17.977Z,10.30
2023-02-15T13:44:04.272Z,8.60
2023-02-15T13:46:38.692Z,7.60
2023-02-15T13:49:27.339Z,6.10
2023-02-15T13:52:05.548Z,8.90
2023-02-15T13:54:54.705Z,10.40
2023-02-15T13:57:32.204Z,19.00
2023-02-15T14:00:09.798Z,5.60
2023-02-15T14:03:14.305Z,17.80
2023-02-15T14:06:07.352Z,9.90
2023-02-15T14:09:13.191Z,6.90
2023-02-15T14:12:13.701Z,6.20
2023-02-15T14:15:16.817Z,7.60
2023-02-15T14:18:09.311Z,8.80
2023-02-15T14:20:57.570Z,8.70
2023-02-15T14:23:50.805Z,8.20
2023-02-15T14:26:26.658Z,18.60
2023-02-15T14:29:06.092Z,9.60
2023-02-15T14:31:41.073Z,8.60
2023-02-15T14:34:22.329Z,10.30
2023-02-15T14:36:52.983Z,13.80
2023-02-15T14:39:48.845Z,6.40
2023-02-15T14:42:40.154Z,15.10
2023-02-15T14:45:22.716Z,13.80
2023-02-15T14:48:06.458Z,13.40
2023-02-15T14:50:45.068Z,17.80
2023-02-15T14:53:33.677Z,7.20
2023-02-15T14:56:19.338Z,5.50
2023-02-15T14:58:53.562Z,13.60
2023-02-15T15:01:33.020Z,14.50
2023-02-15T15:04:09.976Z,30.70
2023-02-15T15:06:41.869Z,13.30
2023-02-15T15:09:10.235Z,13.40
2023-02-15T15:11:44.045Z,7.70
2023-02-15T15:14:33.310Z,10.10
2023-02-15T15:17:04.920Z,13.00
2023-02-15T15:19:52.621Z,10.40
2023-02-15T15:22:26.654Z,14.20
2023-02-15T15:25:22.405Z,14.40
2023-02-15T15:27:54.437Z,12.30
2023-02-15T15:30:22.808Z,7.70
2023-02-15T15:32:57.884Z,13.40
2023-02-15T15:35:48.169Z,15.80
2023-02-15T15:38:47.971Z,8.20
2023-02-15T15:41:20.443Z,18.30
2023-02-15T15:44:07.567Z,28.90
2023-02-15T15:46:54.775Z,22.40
2023-02-15T15:49:29.368Z,20.00
2023-02-15T15:52:02.742Z,18.50
2023-02-15T15:54:31.298Z,28.40
2023-02-15T15:57:03.627Z,21.60
2023-02-15T15:59:35.279Z,26.10
2023-02-15T16:02:16.464Z,32.40
2023-02-15T16:04:47.087Z,11.90
2023-02-15T16:07:18.492Z,23.20
2023-02-15T16:10:20.443Z,24.40
2023-02-15T16:12:50.698Z,18.90
2023-02-15T16:15:24.679Z,21.20
2023-02-15T16:17:57.380Z,20.20
2023-02-15T16:20:27.808Z,17.40
2023-02-15T16:23:10.600Z,24.20
2023-02-15T16:25:49.626Z,18.40
2023-02-15T16:28:19.672Z,35.90
2023-02-15T16:31:07.219Z,26.80
2023-02-15T16:33:40.324Z,40.70
2023-02-15T16:36:13.880Z,38.40
2023-02-15T16:38:44.808Z,27.80
2023-02-15T16:41:22.404Z,32.50
2023-02-15T16:43:53.908Z,23.00
2023-02-15T16:46:29.761Z,21.00
2023-02-15T16:49:02.980Z,19.90
2023-02-15T16:51:35.288Z,13.40
2023-02-15T16:54:24.642Z,20.40
2023-02-15T16:56:52.939Z,23.90
2023-02-15T16:59:44.492Z,23.40
2023-02-15T17:02:43.127Z,25.80
2023-02-15T17:05:19.565Z,24.40
2023-02-15T17:08:08.168Z,23.50
2023-02-15T17:10:42.972Z,23.20
2023-02-15T17:13:16.561Z,28.10
2023-02-15T17:16:03.320Z,29.00
2023-02-15T17:18:54.984Z,33.50
2023-02-15T17:21:29.061Z,28.00
2023-02-15T17:26:38.756Z,35.80
2023-02-15T17:29:36.511Z,38.00
2023-02-15T17:32:13.931Z,36.70
2023-02-15T17:34:45.258Z,48.80
2023-02-15T17:37:24.993Z,52.70
2023-02-15T17:39:53.996Z,55.40
2023-02-15T17:42:22.481Z,37.70
2023-02-15T17:44:51.181Z,23.00
2023-02-15T17:47:25.536Z,34.20
2023-02-15T17:49:55.442Z,38.40
2023-02-15T17:52:28.707Z,60.70
2023-02-15T17:55:18.284Z,91.60
2023-02-15T17:57:46.564Z,53.10
2023-02-15T18:00:35.106Z,56.10
2023-02-15T18:03:22.833Z,34.70
2023-02-15T18:06:14.698Z,37.90
2023-02-15T18:09:05.038Z,27.20
2023-02-15T18:11:39.464Z,39.50
2023-02-15T18:14:10.304Z,32.40
2023-02-15T18:16:43.723Z,27.00
2023-02-15T18:19:19.250Z,35.60
2023-02-15T18:21:55.723Z,27.40
2023-02-15T18:24:26.773Z,23.90
2023-02-15T18:26:55.672Z,23.10
2023-02-15T18:29:25.093Z,21.30
2023-02-15T18:31:57.637Z,16.80
2023-02-15T18:34:31.257Z,39.00
2023-02-15T18:37:03.732Z,21.80
2023-02-15T18:39:48.590Z,34.40
2023-02-15T18:42:24.558Z,20.10
2023-02-15T18:44:56.671Z,15.30
2023-02-15T18:47:25.296Z,15.40
2023-02-15T18:49:55.536Z,15.20
2023-02-15T18:52:36.471Z,22.90
2023-02-15T18:55:16.135Z,23.10
2023-02-15T18:57:48.713Z,26.70
2023-02-15T19:00:18.039Z,17.70
2023-02-15T19:02:47.268Z,24.60
2023-02-15T19:05:18.302Z,24.30
2023-02-15T19:07:48.752Z,17.50
2023-02-15T19:10:24.671Z,24.30
2023-02-15T19:12:56.933Z,29.80
2023-02-15T19:15:33.907Z,27.30
2023-02-15T19:18:02.122Z,51.70
2023-02-15T19:20:40.160Z,46.00
2023-02-15T19:23:19.600Z,35.00
2023-02-15T19:25:49.208Z,46.70
2023-02-15T19:28:22.243Z,35.20
2023-02-15T19:30:50.440Z,34.60
2023-02-15T19:33:23.859Z,43.20
2023-02-15T19:35:59.219Z,43.10
2023-02-15T19:38:35.194Z,39.40
2023-02-15T19:41:08.854Z,29.10
2023-02-15T19:43:39.257Z,30.70
2023-02-15T19:46:07.733Z,31.20
2023-02-15T19:48:36.231Z,27.00
2023-02-15T19:51:05.030Z,34.90
2023-02-15T19:53:33.723Z,37.50
2023-02-15T19:56:02.460Z,40.90
2023-02-15T19:58:31.099Z,32.20
2023-02-15T20:00:59.786Z,41.10
2023-02-15T20:03:28.177Z,36.70
2023-02-15T20:05:56.562Z,34.60
2023-02-15T20:08:25.529Z,40.70
2023-02-15T20:10:53.949Z,35.70
2023-02-15T20:13:24.988Z,39.00
2023-02-15T20:15:53.239Z,41.00
2023-02-15T20:18:22.687Z,29.60
2023-02-15T20:20:54.037Z,34.80
2023-02-15T20:23:27.422Z,34.80
2023-02-15T20:26:03.286Z,31.30
2023-02-15T20:28:31.975Z,36.30
2023-02-15T20:31:00.675Z,29.40
2023-02-15T20:33:31.707Z,33.00
2023-02-15T20:36:00.192Z,33.60
2023-02-15T20:38:32.531Z,24.10
2023-02-15T20:41:20.507Z,29.40
2023-02-15T20:43:49.189Z,27.10
2023-02-15T20:46:18.217Z,26.90
2023-02-15T20:48:46.779Z,31.20
2023-02-15T20:51:21.142Z,34.40
2023-02-15T20:53:49.400Z,29.80
2023-02-15T20:56:23.791Z,33.00
2023-02-15T20:58:53.826Z,26.40
2023-02-15T21:01:22.137Z,29.40
2023-02-15T21:03:51.598Z,26.60
2023-02-15T21:06:19.909Z,33.90
2023-02-15T21:08:48.301Z,33.20
2023-02-15T21:11:20.843Z,29.70
2023-02-15T21:13:50.691Z,26.60
2023-02-15T21:16:19.409Z,34.20
2023-02-15T21:18:47.661Z,31.80
2023-02-15T21:21:23.636Z,27.60
2023-02-15T21:23:53.455Z,28.10
2023-02-15T21:26:23.151Z,27.00
2023-02-15T21:28:51.798Z,31.40
2023-02-15T21:31:22.760Z,39.30
2023-02-15T21:33:52.391Z,34.90
2023-02-15T21:36:25.291Z,34.90
2023-02-15T21:38:54.080Z,28.50
2023-02-15T21:41:43.333Z,36.70
2023-02-15T21:44:41.806Z,34.60
2023-02-15T21:47:41.413Z,34.40
2023-02-15T21:50:36.094Z,36.20
2023-02-15T21:55:33.994Z,30.80
2023-02-15T21:58:02.595Z,29.20
2023-02-15T22:00:31.209Z,32.10
2023-02-15T22:03:01.283Z,32.00
2023-02-15T22:05:32.212Z,30.10
2023-02-15T22:08:00.952Z,38.50
2023-02-15T22:10:31.649Z,40.80
2023-02-15T22:13:01.881Z,31.00
2023-02-15T22:15:37.856Z,34.50
2023-02-15T22:18:06.731Z,36.50
2023-02-15T22:20:35.118Z,32.40
2023-02-15T22:23:03.612Z,27.20
2023-02-15T22:25:32.090Z,25.50
2023-02-15T22:28:00.270Z,29.00
2023-02-15T22:30:37.103Z,36.50
2023-02-15T22:33:05.430Z,31.00
2023-02-15T22:35:37.016Z,30.20
2023-02-15T22:38:05.161Z,29.30
2023-02-15T22:40:34.564Z,33.20
2023-02-15T22:43:05.819Z,49.50
2023-02-15T22:45:35.901Z,40.00
2023-02-15T22:48:04.430Z,35.50
2023-02-15T22:50:33.425Z,32.00
2023-02-15T22:53:03.766Z,28.10
2023-02-15T22:55:36.554Z,29.90
2023-02-15T22:58:05.622Z,24.20
2023-02-15T23:00:39.760Z,27.20
2023-02-15T23:03:34.629Z,25.80
2023-02-15T23:06:04.462Z,27.50
2023-02-15T23:08:32.644Z,35.40
2023-02-15T23:11:01.027Z,34.40
2023-02-15T23:13:33.276Z,42.10
2023-02-15T23:16:03.592Z,28.80
2023-02-15T23:18:40.004Z,34.20
2023-02-15T23:21:28.142Z,27.50
2023-02-15T23:24:02.463Z,28.10
2023-02-15T23:26:31.727Z,30.00
2023-02-15T23:29:01.644Z,36.50
2023-02-15T23:31:34.247Z,31.90
2023-02-15T23:34:13.050Z,32.50
2023-02-15T23:36:41.364Z,26.10
2023-02-15T23:39:38.708Z,30.60
2023-02-15T23:42:14.689Z,27.50
2023-02-15T23:44:48.169Z,33.40
2023-02-15T23:47:44.383Z,37.60
2023-02-15T23:50:26.789Z,24.40
2023-02-15T23:52:56.631Z,27.20
2023-02-15T23:55:38.089Z,35.20
2023-02-15T23:58:11.114Z,30.20
